Time;durP1;ratioP1;P1;durP2;ratioP2;P2;SDS_P1;SDS_P2;PMS_P1;PMS_P2;Temp;Humidity;BMP_temperature;BMP_pressure;BME280_temperature;BME280_humidity;BME280_pressure;Samples;Min_cycle;Max_cycle;Signal;HPM_P1;HPM_P2
2021/12/29 00:00:57;;;;;;;21.05;12.60;;;;;;;5.65;75.92;94145.06;5107640;28;20031;-77
2021/12/29 00:03:22;;;;;;;18.90;12.43;;;;;;;5.71;75.75;94141.22;5114439;28;20039;-77
2021/12/29 00:05:48;;;;;;;20.77;13.20;;;;;;;5.72;75.56;94138.53;5096079;28;20489;-77
2021/12/29 00:08:13;;;;;;;21.27;12.88;;;;;;;5.83;75.34;94148.06;5095872;28;20035;-77
2021/12/29 00:10:39;;;;;;;18.10;12.45;;;;;;;5.81;75.69;94150.75;5128345;27;20027;-77
2021/12/29 00:13:05;;;;;;;18.75;11.70;;;;;;;5.80;75.44;94154.25;5111227;28;20036;-77
2021/12/29 00:15:31;;;;;;;17.15;11.57;;;;;;;5.79;75.81;94154.38;5126404;27;20106;-77
2021/12/29 00:17:57;;;;;;;17.45;11.40;;;;;;;5.85;75.30;94147.94;5116121;27;20027;-77
2021/12/29 00:20:28;;;;;;;18.40;11.40;;;;;;;5.88;75.06;94152.84;5132964;27;20031;-77
2021/12/29 00:22:53;;;;;;;16.75;11.15;;;;;;;5.90;75.04;94148.41;5097622;28;20036;-77
2021/12/29 00:25:19;;;;;;;16.77;11.90;;;;;;;5.87;75.31;94153.81;5113868;28;20036;-77
2021/12/29 00:27:44;;;;;;;16.10;11.18;;;;;;;5.85;75.04;94141.03;5112524;28;20031;-77
2021/12/29 00:30:11;;;;;;;15.68;10.80;;;;;;;5.85;75.25;94129.88;5093874;28;20036;-77
2021/12/29 00:32:37;;;;;;;16.63;10.73;;;;;;;5.83;75.72;94132.59;5112632;28;20034;-77
2021/12/29 00:35:03;;;;;;;17.35;11.18;;;;;;;5.85;75.34;94135.03;5112454;28;20024;-77
2021/12/29 00:37:29;;;;;;;16.95;10.45;;;;;;;5.97;75.31;94132.41;5112349;28;20490;-77
2021/12/29 00:39:54;;;;;;;17.95;11.13;;;;;;;5.97;75.13;94131.59;5078620;28;20039;-77
2021/12/29 00:42:19;;;;;;;16.15;10.77;;;;;;;5.92;75.17;94120.78;5130080;27;20050;-77
2021/12/29 00:44:45;;;;;;;21.40;12.25;;;;;;;5.89;75.28;94129.56;5132761;27;20038;-77
2021/12/29 00:47:13;;;;;;;17.70;11.10;;;;;;;5.84;75.42;94123.91;5133987;27;20454;-77
2021/12/29 00:49:39;;;;;;;18.77;11.73;;;;;;;5.89;75.08;94131.31;5131942;27;20043;-77
2021/12/29 00:52:07;;;;;;;18.17;11.32;;;;;;;5.91;74.84;94114.78;5112147;28;20027;-77
2021/12/29 00:54:33;;;;;;;17.42;10.52;;;;;;;5.95;74.78;94125.72;5104271;28;20055;-77
2021/12/29 00:56:59;;;;;;;17.30;11.30;;;;;;;5.86;75.11;94131.53;5095105;28;20034;-77
2021/12/29 00:59:25;;;;;;;19.33;11.63;;;;;;;5.66;75.96;94136.44;5095436;28;20031;-77
2021/12/29 01:01:51;;;;;;;19.60;12.48;;;;;;;5.68;75.62;94133.72;5104284;28;20022;-77
2021/12/29 01:04:17;;;;;;;18.52;12.23;;;;;;;5.82;75.35;94130.94;5111556;27;20046;-77
2021/12/29 01:06:42;;;;;;;17.90;10.82;;;;;;;5.82;75.27;94125.78;5109452;28;20019;-77
2021/12/29 01:09:07;;;;;;;15.75;10.43;;;;;;;5.85;75.51;94135.88;5095182;28;20424;-77
2021/12/29 01:11:33;;;;;;;18.38;10.82;;;;;;;5.79;75.47;94121.69;5111896;28;20477;-77
2021/12/29 01:13:58;;;;;;;17.77;11.32;;;;;;;5.83;75.53;94128.25;5111617;28;20027;-77
2021/12/29 01:19:06;;;;;;;16.13;10.18;;;;;;;5.89;75.02;94123.56;5111840;28;20039;-77
2021/12/29 01:21:34;;;;;;;17.38;10.88;;;;;;;5.92;74.80;94116.44;5124456;27;20441;-77
2021/12/29 01:24:00;;;;;;;16.13;10.27;;;;;;;5.93;74.79;94101.78;5115447;27;20035;-77
2021/12/29 01:26:25;;;;;;;15.93;10.45;;;;;;;5.94;74.77;94093.16;5132067;27;20023;-77
2021/12/29 01:28:51;;;;;;;15.18;10.43;;;;;;;5.96;74.62;94093.84;5131245;27;20116;-77
2021/12/29 01:31:16;;;;;;;16.73;10.57;;;;;;;5.92;74.42;94090.66;5132145;27;20030;-76
2021/12/29 01:33:42;;;;;;;17.27;9.90;;;;;;;5.97;74.17;94092.91;5114839;27;20043;-77
2021/12/29 01:36:07;;;;;;;14.50;9.20;;;;;;;5.97;74.07;94087.75;5114751;27;20026;-77
2021/12/29 01:38:33;;;;;;;15.23;9.38;;;;;;;5.76;74.49;94092.75;5114766;27;20028;-77
2021/12/29 01:40:58;;;;;;;14.00;8.85;;;;;;;5.76;74.42;94097.91;5130857;27;20023;-77
2021/12/29 01:43:23;;;;;;;14.45;9.35;;;;;;;5.78;74.49;94089.13;5131807;27;20085;-77
2021/12/29 01:45:49;;;;;;;13.65;8.55;;;;;;;5.77;74.54;94091.81;5131538;27;20027;-77
2021/12/29 01:48:16;;;;;;;13.57;8.75;;;;;;;5.77;74.26;94092.63;5130246;27;20035;-77
2021/12/29 01:50:44;;;;;;;15.57;9.73;;;;;;;5.73;74.54;94086.06;5111065;28;20038;-77
2021/12/29 01:53:12;;;;;;;13.88;8.70;;;;;;;5.65;74.38;94080.66;5111000;28;20034;-77
2021/12/29 01:55:38;;;;;;;14.45;9.20;;;;;;;5.61;74.57;94076.69;5111016;28;20072;-77
2021/12/29 01:58:04;;;;;;;14.18;8.68;;;;;;;5.64;74.83;94081.59;5093960;28;20054;-77
2021/12/29 02:00:33;;;;;;;17.52;8.85;;;;;;;5.59;74.69;94068.25;5101802;28;20659;-77
2021/12/29 02:02:59;;;;;;;13.85;9.57;;;;;;;5.62;74.66;94073.16;5110798;28;20500;-76
2021/12/29 02:05:24;;;;;;;15.00;8.90;;;;;;;5.57;74.56;94054.63;5093653;28;20031;-77
2021/12/29 02:07:50;;;;;;;14.23;8.75;;;;;;;5.65;74.66;94057.47;5122778;27;20042;-76
2021/12/29 02:10:16;;;;;;;15.35;9.10;;;;;;;5.65;74.59;94052.31;5117294;27;20111;-77
2021/12/29 02:12:41;;;;;;;21.48;13.02;;;;;;;5.34;75.24;94053.78;5093707;28;20124;-76
2021/12/29 02:15:07;;;;;;;18.65;11.73;;;;;;;5.39;75.18;94046.53;5076598;28;20493;-76
2021/12/29 02:17:33;;;;;;;18.45;11.95;;;;;;;5.40;75.25;94032.72;5110972;27;20024;-76
2021/12/29 02:20:09;;;;;;;17.40;11.43;;;;;;;5.34;75.59;94033.19;5113805;27;20080;-76
2021/12/29 02:22:47;;;;;;;15.43;10.45;;;;;;;5.34;75.57;94028.84;5113966;27;20054;-76
2021/12/29 02:27:48;;;;;;;14.10;9.20;;;;;;;5.31;75.85;94023.94;5131270;27;20135;-76
2021/12/29 02:30:15;;;;;;;14.63;9.15;;;;;;;5.34;76.17;93999.69;5130101;27;20189;-76
2021/12/29 02:32:41;;;;;;;15.25;9.43;;;;;;;5.32;76.09;93997.25;5113810;27;20459;-76
2021/12/29 02:35:07;;;;;;;12.82;8.32;;;;;;;5.35;75.97;93999.59;5113694;27;20417;-76
2021/12/29 02:37:33;;;;;;;13.55;8.07;;;;;;;5.29;75.84;93989.75;5112088;28;20034;-76
2021/12/29 02:39:58;;;;;;;14.48;8.70;;;;;;;5.25;76.13;93985.75;5113563;27;20031;-76
2021/12/29 02:42:27;;;;;;;45.17;17.98;;;;;;;5.20;76.52;93979.31;5113691;27;20484;-76
2021/12/29 02:44:53;;;;;;;19.73;9.85;;;;;;;5.31;76.53;93997.38;5097688;27;20023;-76
2021/12/29 02:47:19;;;;;;;20.05;10.73;;;;;;;5.31;76.45;93987.06;5130747;27;20027;-76
2021/12/29 02:49:47;;;;;;;15.10;8.10;;;;;;;5.38;76.14;93991.63;5128641;27;20035;-76
2021/12/29 02:52:14;;;;;;;11.75;7.40;;;;;;;5.39;75.90;93989.88;5131150;27;20023;-76
2021/12/29 02:54:42;;;;;;;11.80;7.93;;;;;;;5.12;76.40;93987.59;5130572;28;20027;-76
2021/12/29 02:57:07;;;;;;;11.40;7.28;;;;;;;5.21;75.97;93984.38;5130500;27;20016;-76
2021/12/29 02:59:33;;;;;;;12.23;7.85;;;;;;;5.24;76.09;93997.00;5116045;28;20035;-76
2021/12/29 03:01:58;;;;;;;12.00;7.65;;;;;;;5.19;75.81;93972.53;5110053;28;20032;-76
2021/12/29 03:04:24;;;;;;;10.68;7.00;;;;;;;5.32;76.14;93994.69;5110069;28;20076;-76
2021/12/29 03:06:49;;;;;;;13.23;8.15;;;;;;;5.31;76.04;93998.19;5109975;28;20383;-76
2021/12/29 03:09:16;;;;;;;11.93;7.88;;;;;;;5.17;76.22;93980.38;5109718;28;20050;-76
2021/12/29 03:11:41;;;;;;;13.15;8.38;;;;;;;5.22;76.38;93988.56;5109613;28;20077;-76
2021/12/29 03:14:07;;;;;;;14.60;9.02;;;;;;;5.08;76.58;93981.88;5109903;28;20035;-76
2021/12/29 03:16:33;;;;;;;13.25;7.90;;;;;;;5.13;76.50;93992.66;5109800;28;20023;-77
2021/12/29 03:19:02;;;;;;;13.85;8.57;;;;;;;5.20;76.53;93984.47;5110351;28;20032;-75
2021/12/29 03:21:27;;;;;;;17.63;9.88;;;;;;;5.26;76.53;93979.66;5113647;28;20046;-76
2021/12/29 03:23:53;;;;;;;14.30;8.80;;;;;;;5.15;77.06;93970.19;5112994;28;20031;-75
2021/12/29 03:26:18;;;;;;;13.98;9.70;;;;;;;5.20;76.41;93972.41;5130417;28;20023;-76
2021/12/29 03:28:44;;;;;;;15.38;9.10;;;;;;;5.27;76.30;93981.31;5112884;28;20038;-76
2021/12/29 03:31:14;;;;;;;22.70;11.68;;;;;;;5.27;76.35;93980.50;5130978;27;20023;-76
2021/12/29 03:33:40;;;;;;;27.63;16.95;;;;;;;5.29;76.11;93979.47;5109865;28;20537;-76
2021/12/29 03:36:06;;;;;;;22.55;13.15;;;;;;;5.28;76.07;93967.50;5092804;28;20030;-76
2021/12/29 03:38:33;;;;;;;24.63;13.18;;;;;;;5.23;76.13;93979.09;5110945;28;20028;-76
2021/12/29 03:40:59;;;;;;;19.20;12.25;;;;;;;5.18;76.14;93982.00;5118269;28;20035;-76
2021/12/29 03:43:25;;;;;;;16.00;10.50;;;;;;;5.16;76.23;93973.59;5112952;28;20038;-76
2021/12/29 03:45:54;;;;;;;14.40;8.88;;;;;;;5.25;75.94;93983.19;5130206;28;20544;-76
2021/12/29 03:48:21;;;;;;;16.20;9.60;;;;;;;4.95;76.47;93965.69;5113487;28;20458;-76
2021/12/29 03:50:46;;;;;;;18.30;9.90;;;;;;;4.90;77.06;93972.94;5096020;28;20023;-75
2021/12/29 03:53:13;;;;;;;15.32;9.13;;;;;;;5.00;77.00;93976.47;5104120;28;20047;-76
2021/12/29 03:55:39;;;;;;;14.98;9.38;;;;;;;5.04;77.45;93979.63;5092800;28;20026;-76
2021/12/29 03:58:05;;;;;;;22.15;10.20;;;;;;;4.99;77.30;93966.31;5092418;28;20035;-75
2021/12/29 04:00:30;;;;;;;19.92;13.55;;;;;;;5.08;77.74;93976.72;5092458;28;20051;-76
2021/12/29 04:02:56;;;;;;;19.15;11.52;;;;;;;4.74;78.83;93970.69;5126424;27;20039;-75
2021/12/29 04:05:22;;;;;;;21.52;11.60;;;;;;;4.77;78.80;93972.22;5134763;27;20110;-76
2021/12/29 04:07:47;;;;;;;21.38;13.75;;;;;;;4.92;78.51;93974.47;5133619;27;20050;-75
2021/12/29 04:10:13;;;;;;;18.25;12.23;;;;;;;4.99;78.07;93969.69;5116302;27;20042;-76
2021/12/29 04:12:41;;;;;;;19.92;12.40;;;;;;;4.99;77.88;93966.31;5133453;27;20438;-76
2021/12/29 04:15:08;;;;;;;20.48;12.82;;;;;;;5.01;77.43;93959.28;5116181;27;20035;-75
2021/12/29 04:17:37;;;;;;;17.55;11.05;;;;;;;5.06;77.21;93958.00;5133350;27;20070;-75
2021/12/29 04:22:52;;;;;;;13.50;8.30;;;;;;;4.96;77.14;93959.63;5098464;28;20055;-75
2021/12/29 04:25:19;;;;;;;12.27;8.18;;;;;;;4.98;76.90;93951.78;5112723;28;20297;-76
2021/12/29 04:27:47;;;;;;;13.63;8.43;;;;;;;4.92;76.89;93956.44;5117650;27;20075;-75
2021/12/29 04:30:12;;;;;;;17.67;9.50;;;;;;;4.99;77.00;93950.88;5132942;27;20047;-76
2021/12/29 04:32:38;;;;;;;14.70;8.68;;;;;;;4.59;77.51;93940.91;5114249;27;20030;-76
2021/12/29 04:35:03;;;;;;;17.55;10.73;;;;;;;4.77;77.39;93942.16;5123882;27;20024;-76
2021/12/29 04:37:29;;;;;;;18.75;10.80;;;;;;;4.82;77.25;93947.78;5125210;27;20450;-76
2021/12/29 04:39:54;;;;;;;19.92;12.13;;;;;;;4.83;77.43;93961.47;5133368;27;20038;-76
2021/12/29 04:42:19;;;;;;;20.88;13.38;;;;;;;4.81;77.64;93964.13;5117551;27;20031;-75
2021/12/29 04:44:45;;;;;;;18.80;11.95;;;;;;;4.77;77.53;93959.34;5130727;27;20416;-76
2021/12/29 04:47:12;;;;;;;26.58;16.70;;;;;;;4.81;77.60;93956.41;5113363;27;20031;-75
2021/12/29 04:49:42;;;;;;;25.95;16.13;;;;;;;4.90;77.54;93962.63;5104339;27;20036;-76
2021/12/29 04:52:10;;;;;;;23.70;13.90;;;;;;;4.84;77.53;93968.25;5082378;27;20455;-75
2021/12/29 04:54:36;;;;;;;25.98;14.88;;;;;;;4.82;77.63;93967.53;5108698;27;20118;-76
2021/12/29 04:57:02;;;;;;;23.48;13.75;;;;;;;4.82;77.62;93981.25;5112934;27;20030;-75
2021/12/29 04:59:28;;;;;;;25.55;16.33;;;;;;;4.87;77.78;93981.69;5132961;27;20031;-76
2021/12/29 05:01:53;;;;;;;30.55;17.30;;;;;;;5.00;78.11;93979.06;5118928;27;20019;-75
2021/12/29 05:04:30;;;;;;;29.75;16.85;;;;;;;4.96;78.10;93975.06;5136996;27;20091;-75
2021/12/29 05:09:39;;;;;;;30.45;16.90;;;;;;;4.92;78.65;93982.19;5116190;27;20081;-75
2021/12/29 05:12:06;;;;;;;25.02;16.45;;;;;;;4.87;78.66;93976.56;5120545;27;20508;-75
2021/12/29 05:14:31;;;;;;;31.15;18.25;;;;;;;4.89;79.18;93981.59;5152214;27;20117;-75
2021/12/29 05:16:56;;;;;;;29.63;17.42;;;;;;;4.96;78.77;93981.94;5114553;27;20038;-75
2021/12/29 05:19:22;;;;;;;30.92;18.20;;;;;;;4.90;79.20;93984.06;5131134;27;20035;-75
2021/12/29 05:21:47;;;;;;;26.92;16.35;;;;;;;4.95;78.70;93990.63;5117782;27;20074;-75
2021/12/29 05:24:13;;;;;;;26.95;16.60;;;;;;;4.95;78.53;93978.56;5154202;27;20030;-77
2021/12/29 05:26:38;;;;;;;23.45;14.60;;;;;;;5.01;78.56;93987.59;5113502;27;20058;-76
2021/12/29 05:29:04;;;;;;;27.48;17.42;;;;;;;5.02;78.34;93986.69;5131806;27;20047;-76
2021/12/29 05:31:30;;;;;;;28.45;18.08;;;;;;;5.07;78.13;93985.41;5097240;27;20114;-77
2021/12/29 05:33:55;;;;;;;29.95;17.13;;;;;;;4.92;78.13;93978.78;5112715;27;20500;-78
2021/12/29 05:36:20;;;;;;;35.05;20.55;;;;;;;4.79;78.74;93996.91;5111053;27;20027;-78
2021/12/29 05:38:46;;;;;;;46.95;28.40;;;;;;;4.66;79.73;93991.81;5129274;27;20500;-78
2021/12/29 05:41:13;;;;;;;46.08;29.52;;;;;;;4.66;79.40;93991.00;5114424;27;20069;-77
2021/12/29 05:43:38;;;;;;;40.30;25.45;;;;;;;4.70;79.00;94000.94;5107942;27;20426;-77
2021/12/29 05:46:04;;;;;;;37.13;22.30;;;;;;;4.63;78.88;94006.66;5077077;28;20038;-77
2021/12/29 05:48:29;;;;;;;37.85;22.25;;;;;;;4.67;78.55;94010.66;5127472;27;20038;-77
2021/12/29 05:50:55;;;;;;;33.75;20.77;;;;;;;4.73;78.43;94007.63;5096845;27;20024;-77
2021/12/29 05:53:20;;;;;;;32.88;21.05;;;;;;;4.74;78.45;94008.47;5129685;27;20039;-77
2021/12/29 05:55:45;;;;;;;30.63;19.75;;;;;;;4.85;78.05;94021.38;5129966;27;20501;-77
2021/12/29 05:58:11;;;;;;;28.55;19.35;;;;;;;4.89;78.21;94010.72;5106499;27;20567;-78
2021/12/29 06:00:38;;;;;;;36.35;24.13;;;;;;;4.81;77.82;94007.88;5130116;27;20031;-77
2021/12/29 06:03:03;;;;;;;34.78;22.10;;;;;;;4.81;77.98;94007.88;5130990;27;20038;-77
2021/12/29 06:05:29;;;;;;;34.92;21.42;;;;;;;4.62;78.29;93987.00;5122037;27;20035;-77
2021/12/29 06:07:54;;;;;;;34.83;21.17;;;;;;;4.83;78.13;94006.03;5087150;27;20099;-77
2021/12/29 06:10:19;;;;;;;34.47;21.15;;;;;;;4.91;77.79;94006.28;5128162;27;20031;-78
2021/12/29 06:12:45;;;;;;;34.05;20.35;;;;;;;4.96;77.79;93998.25;5121295;27;20031;-78
2021/12/29 06:15:10;;;;;;;34.22;20.83;;;;;;;5.02;77.62;94007.28;5130594;27;20043;-78
2021/12/29 06:17:36;;;;;;;32.60;20.80;;;;;;;5.08;77.69;94011.97;5106958;28;20402;-77
2021/12/29 06:20:02;;;;;;;32.38;21.20;;;;;;;5.06;77.50;94008.66;5124104;27;20031;-77
2021/12/29 06:22:28;;;;;;;32.45;22.15;;;;;;;5.10;77.68;94007.53;5093358;27;20035;-77
2021/12/29 06:24:53;;;;;;;32.35;21.92;;;;;;;5.20;77.56;94005.88;5112058;28;20401;-77
2021/12/29 06:27:20;;;;;;;33.28;21.20;;;;;;;5.24;77.35;94012.47;5109486;28;20047;-77
2021/12/29 06:29:45;;;;;;;31.65;19.15;;;;;;;5.22;77.41;94009.19;5076287;28;20057;-77
2021/12/29 06:32:11;;;;;;;28.35;18.52;;;;;;;5.24;77.65;94020.19;5110267;28;20047;-77
2021/12/29 06:34:37;;;;;;;32.30;20.10;;;;;;;5.23;77.82;94015.13;5094319;28;20020;-77
2021/12/29 06:37:08;;;;;;;27.98;19.17;;;;;;;5.24;77.94;94027.91;5111424;27;20517;-77
2021/12/29 06:39:34;;;;;;;31.75;20.77;;;;;;;5.14;78.64;94026.94;5110851;27;20020;-77
2021/12/29 06:41:59;;;;;;;40.25;24.73;;;;;;;5.18;78.89;94023.19;5113907;27;20429;-77
2021/12/29 06:44:25;;;;;;;43.47;25.85;;;;;;;5.15;79.20;94023.44;5130812;27;20038;-77
2021/12/29 06:46:50;;;;;;;47.13;27.05;;;;;;;5.03;79.88;94019.19;5129664;27;20038;-77
2021/12/29 06:49:15;;;;;;;43.65;28.92;;;;;;;4.92;80.48;94015.66;5131918;27;20034;-77
2021/12/29 06:51:41;;;;;;;40.47;25.73;;;;;;;5.02;80.45;94025.28;5109124;28;20471;-77
2021/12/29 06:54:06;;;;;;;44.85;26.63;;;;;;;5.09;80.05;94024.69;5119921;28;20023;-80
2021/12/29 06:56:32;;;;;;;36.67;22.67;;;;;;;5.12;79.82;94018.50;5110037;28;20024;-78
2021/12/29 06:58:58;;;;;;;32.90;21.55;;;;;;;5.21;79.71;94023.00;5130204;27;20092;-77
2021/12/29 07:01:23;;;;;;;33.08;21.10;;;;;;;5.25;79.53;94024.41;5109962;28;20088;-84
2021/12/29 07:03:49;;;;;;;34.78;20.33;;;;;;;5.30;79.61;94024.88;5112633;28;20053;-78
2021/12/29 07:06:14;;;;;;;45.67;27.20;;;;;;;5.25;80.10;94026.16;5130281;27;20253;-79
2021/12/29 07:08:40;;;;;;;43.13;25.40;;;;;;;5.23;80.50;94018.53;5098086;28;20023;-79
2021/12/29 07:11:05;;;;;;;41.00;25.52;;;;;;;5.32;80.08;94033.31;5112218;28;20028;-78
2021/12/29 07:13:31;;;;;;;42.38;26.77;;;;;;;5.33;79.97;94021.25;5131318;27;20135;-78
2021/12/29 07:15:56;;;;;;;43.53;29.27;;;;;;;5.37;79.74;94035.53;5129368;28;20042;-79
2021/12/29 07:18:22;;;;;;;44.78;30.25;;;;;;;5.48;79.36;94027.00;5117110;28;20397;-78
2021/12/29 07:20:47;;;;;;;49.45;30.15;;;;;;;5.51;79.38;94026.78;5076133;28;20023;-77
2021/12/29 07:23:13;;;;;;;40.22;26.83;;;;;;;5.50;79.46;94028.53;5129071;28;20109;-78
2021/12/29 07:25:38;;;;;;;36.63;24.00;;;;;;;5.55;79.54;94033.34;5127910;28;20083;-80
2021/12/29 07:28:04;;;;;;;36.67;26.42;;;;;;;5.58;79.29;94035.69;5117619;28;20054;-78
2021/12/29 07:30:29;;;;;;;42.60;28.67;;;;;;;5.42;80.22;94040.34;5104310;28;20075;-80
2021/12/29 07:32:55;;;;;;;44.67;29.20;;;;;;;5.45;80.67;94042.69;5095439;28;20027;-77
2021/12/29 07:35:20;;;;;;;46.03;29.98;;;;;;;5.47;80.52;94030.53;5124520;28;20046;-78
2021/12/29 07:37:46;;;;;;;51.90;34.15;;;;;;;5.54;80.22;94050.56;5125485;27;20031;-78
2021/12/29 07:40:11;;;;;;;60.05;42.55;;;;;;;5.56;79.89;94043.53;5135322;27;20039;-78
2021/12/29 07:42:38;;;;;;;58.50;39.17;;;;;;;5.61;79.55;94045.75;5130857;27;20023;-78
2021/12/29 07:45:07;;;;;;;72.20;50.53;;;;;;;5.62;79.25;94044.81;5112569;27;20031;-78
2021/12/29 07:47:33;;;;;;;71.32;47.97;;;;;;;5.54;79.64;94040.25;5097175;28;20107;-76
2021/12/29 07:49:59;;;;;;;66.78;45.20;;;;;;;5.67;79.66;94040.13;5096378;28;20031;-78
2021/12/29 07:52:24;;;;;;;65.60;44.17;;;;;;;5.70;79.45;94045.06;5113605;28;20073;-77
2021/12/29 07:54:49;;;;;;;60.58;38.15;;;;;;;5.70;79.72;94047.63;5113654;28;20027;-78
2021/12/29 07:57:15;;;;;;;50.15;34.50;;;;;;;5.72;79.47;94050.91;5110582;27;20446;-77
2021/12/29 07:59:40;;;;;;;53.45;35.92;;;;;;;5.75;79.83;94053.25;5107591;28;20024;-77
2021/12/29 08:02:07;;;;;;;55.03;35.33;;;;;;;5.64;79.86;94035.22;5091754;27;20035;-77
2021/12/29 08:04:32;;;;;;;50.75;33.40;;;;;;;5.73;80.04;94056.88;5097327;27;20019;-79
2021/12/29 08:06:58;;;;;;;51.17;33.20;;;;;;;5.66;80.32;94050.56;5131391;27;20433;-78
2021/12/29 08:09:24;;;;;;;47.70;30.38;;;;;;;5.66;80.47;94059.13;5131192;27;20027;-78
2021/12/29 08:11:49;;;;;;;43.03;27.13;;;;;;;5.69;80.15;94053.72;5109194;27;20479;-77
2021/12/29 08:14:15;;;;;;;41.60;26.27;;;;;;;5.76;79.39;94051.50;5101159;27;20035;-77
2021/12/29 08:16:40;;;;;;;40.03;25.42;;;;;;;5.78;79.73;94055.59;5133371;27;20039;-77
2021/12/29 08:19:06;;;;;;;35.53;23.52;;;;;;;5.83;79.77;94058.66;5114444;27;20477;-76
2021/12/29 08:21:31;;;;;;;36.67;23.80;;;;;;;5.83;79.78;94055.25;5119201;27;20462;-77
2021/12/29 08:23:56;;;;;;;37.67;23.38;;;;;;;5.86;79.97;94052.44;5131821;27;20099;-76
2021/12/29 08:26:22;;;;;;;36.05;23.77;;;;;;;5.87;80.33;94045.53;5115747;27;20492;-77
2021/12/29 08:28:48;;;;;;;37.80;22.67;;;;;;;5.82;80.95;94051.88;5115903;27;20054;-77
2021/12/29 08:31:13;;;;;;;35.58;23.92;;;;;;;5.74;81.36;94051.63;5113247;27;20047;-76
2021/12/29 08:33:39;;;;;;;39.45;23.05;;;;;;;5.72;81.52;94053.50;5111485;27;20035;-76
2021/12/29 08:36:07;;;;;;;39.03;23.17;;;;;;;5.80;81.24;94043.44;5119638;27;20026;-77
2021/12/29 08:38:33;;;;;;;34.75;23.00;;;;;;;5.86;80.99;94039.56;5143439;27;20035;-76
2021/12/29 08:40:59;;;;;;;36.78;22.83;;;;;;;5.95;80.70;94044.03;5097548;27;20092;-76
2021/12/29 08:43:24;;;;;;;34.47;22.17;;;;;;;6.00;80.65;94041.94;5094720;27;20036;-76
2021/12/29 08:45:49;;;;;;;36.03;23.40;;;;;;;6.07;80.35;94037.09;5133591;27;20031;-76
2021/12/29 08:48:15;;;;;;;63.83;42.38;;;;;;;6.04;79.73;94037.34;5131763;27;20034;-76
2021/12/29 08:50:40;;;;;;;55.55;34.03;;;;;;;5.98;79.89;94033.47;5114244;27;20134;-76
2021/12/29 08:53:06;;;;;;;60.85;34.55;;;;;;;6.00;80.21;94035.97;5124159;27;20052;-76
2021/12/29 08:55:32;;;;;;;67.22;40.75;;;;;;;6.04;80.28;94039.94;5129725;27;20027;-76
2021/12/29 08:57:58;;;;;;;46.80;30.90;;;;;;;6.11;79.97;94037.72;5132517;27;20110;-76
2021/12/29 09:00:23;;;;;;;41.47;27.83;;;;;;;6.12;79.55;94037.56;5133860;27;20039;-76
2021/12/29 09:02:49;;;;;;;49.15;31.00;;;;;;;5.99;80.33;94029.13;5125082;27;20413;-76
2021/12/29 09:05:16;;;;;;;53.60;33.72;;;;;;;5.88;81.14;94029.13;5105080;28;20040;-76
2021/12/29 09:07:42;;;;;;;51.65;32.47;;;;;;;5.92;81.30;94033.13;5128990;27;20031;-76
2021/12/29 09:10:08;;;;;;;47.88;30.77;;;;;;;5.93;81.10;94027.84;5099163;28;20044;-76
2021/12/29 09:12:33;;;;;;;50.97;31.88;;;;;;;5.90;80.85;94033.22;5129883;27;20118;-76
2021/12/29 09:14:58;;;;;;;54.05;34.25;;;;;;;5.72;81.36;94032.88;5130481;27;20035;-76
2021/12/29 09:17:24;;;;;;;52.65;34.15;;;;;;;5.58;82.14;94028.78;5129651;27;20026;-78
2021/12/29 09:19:50;;;;;;;57.15;37.75;;;;;;;5.51;82.39;94024.19;5143440;27;20027;-78
2021/12/29 09:22:15;;;;;;;65.57;41.78;;;;;;;5.41;82.89;94012.97;5132603;27;20027;-78
2021/12/29 09:24:42;;;;;;;63.53;41.40;;;;;;;5.43;83.33;94026.53;5092935;27;20033;-78
2021/12/29 09:27:08;;;;;;;65.82;41.75;;;;;;;5.45;83.29;94017.75;5119185;27;20043;-77
2021/12/29 09:29:42;;;;;;;71.18;45.05;;;;;;;5.49;83.06;94014.03;5103516;27;20550;-77
2021/12/29 09:32:07;;;;;;;62.88;41.28;;;;;;;5.38;83.40;94014.81;5100358;27;20059;-78
2021/12/29 09:34:34;;;;;;;70.35;45.97;;;;;;;5.38;83.52;94011.44;5085514;27;20065;-77
2021/12/29 09:37:00;;;;;;;67.20;42.88;;;;;;;5.41;83.66;94007.81;5112802;27;20033;-77
2021/12/29 09:39:25;;;;;;;65.95;41.50;;;;;;;5.37;83.56;93995.13;5110038;27;20071;-77
2021/12/29 09:41:51;;;;;;;62.40;38.83;;;;;;;5.54;83.30;93993.03;5129857;27;20141;-76
2021/12/29 09:44:17;;;;;;;56.72;35.38;;;;;;;5.67;83.43;93992.94;5114175;27;20030;-76
2021/12/29 09:46:42;;;;;;;48.00;30.35;;;;;;;5.72;83.49;93989.06;5125897;27;20027;-76
2021/12/29 09:49:08;;;;;;;21.42;14.45;;;;;;;5.78;82.57;93978.28;5128005;27;20035;-76
2021/12/29 09:51:34;;;;;;;49.35;30.48;;;;;;;5.80;83.16;93989.31;5111743;27;20031;-76
2021/12/29 09:53:59;;;;;;;50.15;30.85;;;;;;;5.80;83.79;93981.56;5119203;27;20536;-77
2021/12/29 09:56:27;;;;;;;43.00;27.63;;;;;;;5.93;83.08;93978.03;5112332;27;20031;-76
2021/12/29 09:58:53;;;;;;;22.00;14.73;;;;;;;5.97;82.76;93974.31;5123259;27;20043;-76
2021/12/29 10:01:19;;;;;;;14.52;10.85;;;;;;;6.10;82.43;93964.69;5123480;27;20107;-77
2021/12/29 10:03:44;;;;;;;16.83;9.75;;;;;;;6.19;81.79;93963.16;5127986;27;20489;-77
2021/12/29 10:06:10;;;;;;;11.60;8.60;;;;;;;6.23;82.08;93965.34;5125324;27;20072;-77
2021/12/29 10:08:37;;;;;;;11.30;8.27;;;;;;;6.34;81.82;93961.09;5120800;27;20132;-77
2021/12/29 10:11:11;;;;;;;8.65;6.53;;;;;;;6.40;81.20;93956.25;5139616;27;20041;-76
2021/12/29 10:13:41;;;;;;;9.38;6.32;;;;;;;6.49;80.84;93954.69;5117080;27;20066;-77
2021/12/29 10:16:11;;;;;;;9.00;6.18;;;;;;;6.51;80.60;93936.53;5143523;27;20508;-79
2021/12/29 10:18:37;;;;;;;9.90;6.22;;;;;;;6.63;80.72;93945.84;5127896;27;20034;-79
2021/12/29 10:21:08;;;;;;;11.75;7.63;;;;;;;6.68;80.39;93944.53;5119502;27;20035;-77
2021/12/29 10:23:47;;;;;;;38.97;26.08;;;;;;;6.59;80.95;93945.28;5140625;27;20135;-80
2021/12/29 10:26:16;;;;;;;48.35;30.20;;;;;;;6.59;81.91;93942.69;5113377;27;20040;-79
2021/12/29 10:28:43;;;;;;;60.53;37.42;;;;;;;6.67;81.20;93932.56;5102408;27;20114;-80
2021/12/29 10:31:21;;;;;;;45.75;29.58;;;;;;;6.67;81.12;93932.56;5135762;27;20061;-80
2021/12/29 10:33:51;;;;;;;42.03;27.10;;;;;;;6.75;80.76;93933.72;5114682;27;20043;-79
2021/12/29 10:36:29;;;;;;;25.73;16.40;;;;;;;6.81;80.66;93935.81;5124627;27;20050;-77
2021/12/29 10:39:01;;;;;;;13.35;9.18;;;;;;;6.84;80.14;93932.97;5112471;27;20029;-77
2021/12/29 10:41:26;;;;;;;18.67;12.70;;;;;;;6.56;80.44;93908.59;5120545;27;20476;-81
2021/12/29 10:43:54;;;;;;;11.18;8.43;;;;;;;6.80;80.21;93923.81;5093140;28;20067;-76
2021/12/29 10:46:21;;;;;;;6.93;5.60;;;;;;;6.78;79.05;93912.81;5093185;28;20024;-76
2021/12/29 10:48:50;;;;;;;5.63;4.22;;;;;;;6.77;79.12;93911.16;5088396;27;20039;-76
2021/12/29 10:51:16;;;;;;;6.10;4.75;;;;;;;6.68;79.25;93913.56;5130072;27;20054;-78
2021/12/29 10:53:43;;;;;;;5.45;4.25;;;;;;;6.66;78.85;93912.06;5130258;28;20070;-75
2021/12/29 10:56:22;;;;;;;5.22;4.45;;;;;;;6.77;78.30;93908.59;5111216;28;20558;-76
2021/12/29 10:58:48;;;;;;;5.28;4.18;;;;;;;6.86;78.43;93905.28;5127726;27;20031;-75
2021/12/29 11:01:15;;;;;;;6.05;4.40;;;;;;;6.89;78.23;93897.25;5112868;28;20028;-75
2021/12/29 11:03:44;;;;;;;7.43;5.40;;;;;;;7.04;78.72;93908.06;5126513;27;20235;-76
2021/12/29 11:06:12;;;;;;;36.80;20.38;;;;;;;7.07;79.37;93910.41;5127538;27;20505;-76
2021/12/29 11:08:50;;;;;;;34.85;18.95;;;;;;;7.01;79.05;93900.59;5100835;28;20027;-78
2021/12/29 11:11:17;;;;;;;31.45;17.02;;;;;;;6.93;79.88;93903.81;5092831;28;20043;-76
2021/12/29 11:13:42;;;;;;;29.10;18.85;;;;;;;6.75;81.00;93906.16;5124443;27;20106;-75
2021/12/29 11:16:09;;;;;;;30.63;19.80;;;;;;;6.66;82.30;93906.91;5125577;27;20125;-76
2021/12/29 11:18:43;;;;;;;39.13;26.02;;;;;;;6.45;83.36;93904.31;5123287;27;20023;-76
2021/12/29 11:21:09;;;;;;;50.10;31.17;;;;;;;6.55;83.51;93896.66;5108766;28;20040;-75
2021/12/29 11:23:41;;;;;;;47.67;32.50;;;;;;;6.68;83.07;93910.97;5122515;27;20038;-76
2021/12/29 11:26:06;;;;;;;44.25;29.10;;;;;;;6.85;82.21;93899.28;5115388;27;20107;-76
2021/12/29 11:28:31;;;;;;;35.40;24.67;;;;;;;6.62;82.19;93896.00;5121282;27;20303;-79
2021/12/29 11:30:58;;;;;;;35.75;25.02;;;;;;;6.58;82.65;93880.91;5116181;27;20023;-76
2021/12/29 11:33:24;;;;;;;37.17;25.05;;;;;;;6.60;82.34;93886.75;5108391;28;20035;-77